Arthur City, TX

9:04 AM CST on February 11, 2016 (GMT -0600)
Haagenson Estates Powderly TX | | Change Station
CLOSE
Current Station
Personal Weather Station
Location: Paris, TX
Elevation: 535 ft
Nearby Weather Stations

Elev 535 ft 33.78 °N, 95.53 °W | Updated 10 seconds ago

Clear
Clear
54.3 °F
Feels Like 54.3 °F
N
3.4
Wind Variable Wind from WNW
Gusts 4.9 mph

Today
High -- | Low -- °F
--% Chance of Precip.
Yesterday
High -- | Low -- °F
Precip. -- in
Pressure 30.08 in
Visibility 10.0 miles
Clouds Clear
Dew Point 32 °F
Humidity 43%
Rainfall 0.00 in
Snow Depth Not available.
7:10 AM 6:01 PM
Waxing Crescent, 12% visible
METAR KPRX 111455Z 26008KT 10SM CLR 10/01 A3008 RMK AO1 52017
Pressure 30.08 in
Visibility 10.0 miles
Clouds Clear
Dew Point 32 °F
Humidity 43%
Rainfall 0.00 in
Snow Depth Not available.
7:10 AM 6:01 PM
Waxing Crescent, 12% visible
METAR KPRX 111455Z 26008KT 10SM CLR 10/01 A3008 RMK AO1 52017

10-Day Weather Forecast

Almanac

Astronomy

Feb. 11, 2016 Rise Set
Actual Time
Civil Twilight
Nautical Twilight
Astronomical Twilight
Moon
Length of Visible Light
Length of Day
Tomorrow will be .
, % of the Moon is Illuminated

Today's Extremes

State Highs State Lows

Community

WunderPhotos

Upload Photos

1,892,059 photos uploaded!

WunderBlog® & News

Nearby

Air Quality

  Air Quality AQ Index Pollutant
Not available.

Snow Depth

Station Depth Elevation

Earthquake Activity

City Distance Mag. Time & Date
Minimum magnitude displayed is 2.5.

Coastal Water Temperatures

Place Temperature

Stations

Nearby Weather Stations

Station Location Temp. Windchill Dew Point Humidity Wind Precip. Elev Updated Type
                   

Watches & Warnings

There are currently no watches in effect.